Time;durP1;ratioP1;P1;durP2;ratioP2;P2;SDS_P1;SDS_P2;PMS_P1;PMS_P2;Temp;Humidity;BMP_temperature;BMP_pressure;BME280_temperature;BME280_humidity;BME280_pressure;Samples;Min_cycle;Max_cycle;Signal;HPM_P1;HPM_P2
2023/08/24 00:00:42;;;;;;;10.48;4.75;;;16.90;99.90;;;;;;4899664;29;20570;-69
2023/08/24 00:03:08;;;;;;;8.73;4.38;;;16.80;99.90;;;;;;4915509;29;20503;-69
2023/08/24 00:05:38;;;;;;;8.93;4.25;;;16.70;99.90;;;;;;4899781;29;20039;-69
2023/08/24 00:08:05;;;;;;;9.75;4.75;;;16.70;99.90;;;;;;4920415;29;20151;-69
2023/08/24 00:10:30;;;;;;;7.25;4.72;;;16.70;99.90;;;;;;4903508;29;20032;-69
2023/08/24 00:12:56;;;;;;;10.05;4.28;;;16.70;99.90;;;;;;4901184;29;20181;-69
2023/08/24 00:15:22;;;;;;;8.13;4.60;;;16.70;99.90;;;;;;4900613;29;20028;-69
2023/08/24 00:17:48;;;;;;;9.80;4.20;;;16.70;99.90;;;;;;4902695;29;20043;-69
2023/08/24 00:20:13;;;;;;;9.35;4.50;;;16.70;99.90;;;;;;4909548;29;20492;-69
2023/08/24 00:22:39;;;;;;;7.28;4.13;;;16.60;99.90;;;;;;4901008;29;20028;-69
2023/08/24 00:25:07;;;;;;;8.02;4.30;;;16.60;99.90;;;;;;4894229;29;20036;-69
2023/08/24 00:27:32;;;;;;;8.77;4.40;;;16.60;99.90;;;;;;4896239;29;20028;-69
2023/08/24 00:29:58;;;;;;;8.10;4.40;;;16.70;99.90;;;;;;4898734;29;20036;-68
2023/08/24 00:32:23;;;;;;;6.88;4.13;;;16.70;99.90;;;;;;4910761;29;20310;-69
2023/08/24 00:34:49;;;;;;;8.80;4.22;;;16.70;99.90;;;;;;4900828;29;20028;-69
2023/08/24 00:37:15;;;;;;;7.55;3.83;;;16.80;99.90;;;;;;4904057;29;20032;-69
2023/08/24 00:39:41;;;;;;;7.35;3.47;;;16.90;99.90;;;;;;4901127;29;20115;-69
2023/08/24 00:42:07;;;;;;;6.63;4.22;;;17.00;99.90;;;;;;4917884;29;20024;-68
2023/08/24 00:44:33;;;;;;;9.38;4.07;;;17.00;99.90;;;;;;4911980;29;20036;-68
2023/08/24 00:46:59;;;;;;;6.25;4.15;;;17.00;99.90;;;;;;4915132;29;20488;-69
2023/08/24 00:49:25;;;;;;;6.43;3.92;;;17.00;99.90;;;;;;4907500;29;20525;-68
2023/08/24 00:51:51;;;;;;;7.47;4.10;;;17.00;99.90;;;;;;4906845;29;20396;-68
2023/08/24 00:54:17;;;;;;;8.63;4.15;;;17.00;99.90;;;;;;4911543;29;20035;-69
2023/08/24 00:56:43;;;;;;;7.40;3.97;;;17.00;99.90;;;;;;4904707;29;20429;-69
2023/08/24 00:59:09;;;;;;;7.00;4.07;;;16.90;99.90;;;;;;4915058;29;20387;-69
2023/08/24 01:01:35;;;;;;;6.47;3.60;;;16.90;99.90;;;;;;4898646;29;20478;-68
2023/08/24 01:04:02;;;;;;;7.93;3.92;;;16.90;99.90;;;;;;4897998;29;20032;-69
2023/08/24 01:06:28;;;;;;;7.18;4.00;;;16.90;99.90;;;;;;4915175;29;20502;-69
2023/08/24 01:08:54;;;;;;;6.35;4.03;;;16.90;99.90;;;;;;4925501;29;20080;-68
2023/08/24 01:12:04;;;;;;;6.70;3.53;;;16.90;99.90;;;;;;4888565;29;20031;-69
2023/08/24 01:15:14;;;;;;;8.45;3.45;;;16.90;99.90;;;;;;4901348;29;20223;-68
2023/08/24 01:17:43;;;;;;;11.05;4.00;;;16.80;99.90;;;;;;4891351;29;20056;-68
2023/08/24 01:20:10;;;;;;;6.60;4.10;;;16.80;99.90;;;;;;4895260;29;20071;-68
2023/08/24 01:22:56;;;;;;;9.20;3.55;;;16.80;99.90;;;;;;4914188;29;20476;-69
2023/08/24 01:25:59;;;;;;;7.93;3.83;;;16.70;99.90;;;;;;4900832;29;20514;-68
2023/08/24 01:28:25;;;;;;;6.68;3.58;;;16.80;99.90;;;;;;4900200;29;20279;-68
2023/08/24 01:30:51;;;;;;;5.70;3.58;;;16.70;99.90;;;;;;4899625;29;20039;-68
2023/08/24 01:33:17;;;;;;;11.68;3.80;;;16.80;99.90;;;;;;4889909;29;20024;-69
2023/08/24 01:35:43;;;;;;;6.68;3.35;;;16.80;99.90;;;;;;4898797;29;20481;-69
2023/08/24 01:38:12;;;;;;;10.15;4.05;;;16.80;99.90;;;;;;4901279;29;20570;-69
2023/08/24 01:41:01;;;;;;;9.75;3.45;;;16.80;99.90;;;;;;4906752;29;20504;-68
2023/08/24 01:43:33;;;;;;;6.35;3.60;;;16.80;99.90;;;;;;4903984;29;20128;-69
2023/08/24 01:45:59;;;;;;;7.45;3.60;;;16.80;99.90;;;;;;4904894;29;20056;-69
2023/08/24 01:48:26;;;;;;;6.60;3.55;;;16.80;99.90;;;;;;4916768;29;20043;-69
2023/08/24 01:50:52;;;;;;;6.03;4.03;;;16.90;99.90;;;;;;4912886;29;20032;-68
2023/08/24 01:53:18;;;;;;;6.50;3.75;;;16.90;99.90;;;;;;4897133;29;20267;-68
2023/08/24 01:55:46;;;;;;;12.00;3.65;;;17.00;99.90;;;;;;4902683;29;20036;-68
2023/08/24 01:58:11;;;;;;;8.32;3.47;;;17.10;99.90;;;;;;4906794;29;20045;-68
2023/08/24 02:00:38;;;;;;;5.97;3.47;;;17.10;99.90;;;;;;4896528;29;20171;-69
2023/08/24 02:03:04;;;;;;;6.72;3.28;;;17.10;99.90;;;;;;4898689;29;20512;-68
2023/08/24 02:05:30;;;;;;;6.75;3.10;;;17.10;99.90;;;;;;4900314;29;20035;-69
2023/08/24 02:07:57;;;;;;;4.30;2.83;;;17.10;99.90;;;;;;4898128;29;20036;-68
2023/08/24 02:10:22;;;;;;;4.45;2.85;;;17.00;99.90;;;;;;4897005;29;20482;-69
2023/08/24 02:12:48;;;;;;;7.10;3.03;;;17.00;99.90;;;;;;4900708;29;20210;-68
2023/08/24 02:15:14;;;;;;;10.15;3.00;;;17.00;99.90;;;;;;4901652;29;20115;-69
2023/08/24 02:17:39;;;;;;;6.05;3.53;;;16.90;99.90;;;;;;4895229;29;20185;-68
2023/08/24 02:20:08;;;;;;;3.53;2.40;;;17.00;99.90;;;;;;4881004;29;20462;-69
2023/08/24 02:22:34;;;;;;;8.25;3.20;;;17.00;99.90;;;;;;4904108;29;20058;-69
2023/08/24 02:25:01;;;;;;;7.97;3.05;;;17.00;99.90;;;;;;4906783;29;20499;-69
2023/08/24 02:27:26;;;;;;;8.27;2.65;;;17.00;99.90;;;;;;4898060;29;20020;-69
2023/08/24 02:29:52;;;;;;;9.15;2.80;;;17.00;99.90;;;;;;4897483;29;20028;-68
2023/08/24 02:32:18;;;;;;;5.70;2.55;;;17.10;99.90;;;;;;4911720;29;20279;-69
2023/08/24 02:34:43;;;;;;;5.10;2.85;;;17.10;99.90;;;;;;4902737;29;20063;-69
2023/08/24 02:37:09;;;;;;;6.30;2.88;;;17.10;99.90;;;;;;4892918;29;20031;-69
2023/08/24 02:39:35;;;;;;;6.63;2.92;;;16.90;99.90;;;;;;4901492;29;20055;-69
2023/08/24 02:42:02;;;;;;;11.65;6.20;;;16.80;99.90;;;;;;4900731;29;20032;-69
2023/08/24 02:44:27;;;;;;;8.70;5.05;;;16.80;99.90;;;;;;4897644;29;20446;-69
2023/08/24 02:46:54;;;;;;;11.20;5.25;;;16.80;99.90;;;;;;4909036;29;20047;-68
2023/08/24 02:49:20;;;;;;;9.50;4.22;;;16.80;99.90;;;;;;4902535;29;20036;-68
2023/08/24 02:51:46;;;;;;;8.93;3.70;;;16.90;99.90;;;;;;4900902;29;20025;-68
2023/08/24 02:54:11;;;;;;;6.15;3.58;;;16.90;99.90;;;;;;4899951;29;20119;-69
2023/08/24 02:56:37;;;;;;;6.88;3.17;;;16.90;99.90;;;;;;4913388;29;20432;-69
2023/08/24 02:59:03;;;;;;;4.28;3.10;;;17.00;99.90;;;;;;4902527;29;20119;-69
2023/08/24 03:01:29;;;;;;;6.78;2.75;;;17.00;99.90;;;;;;4900268;29;20060;-69
2023/08/24 03:03:54;;;;;;;6.65;2.50;;;17.00;99.90;;;;;;4908820;29;20063;-69
2023/08/24 03:06:20;;;;;;;6.30;2.65;;;17.00;99.90;;;;;;4900550;29;20051;-69
2023/08/24 03:08:45;;;;;;;5.50;2.30;;;17.00;99.90;;;;;;4902927;29;20495;-69
2023/08/24 03:11:11;;;;;;;4.93;2.50;;;17.00;99.90;;;;;;4896989;29;20032;-69
2023/08/24 03:13:40;;;;;;;4.88;2.47;;;17.00;99.90;;;;;;4901397;29;20032;-69
2023/08/24 03:16:07;;;;;;;7.13;2.13;;;17.10;99.90;;;;;;4899769;29;20035;-68
2023/08/24 03:18:33;;;;;;;5.35;2.58;;;17.10;99.90;;;;;;4907282;29;20118;-69
2023/08/24 03:20:59;;;;;;;6.53;2.78;;;17.10;99.90;;;;;;4894289;29;20059;-69
2023/08/24 03:23:24;;;;;;;5.45;2.88;;;17.20;99.90;;;;;;4903626;29;20039;-69
2023/08/24 03:25:50;;;;;;;6.50;2.58;;;17.20;99.90;;;;;;4904775;29;20538;-69
2023/08/24 03:28:16;;;;;;;6.43;2.42;;;17.20;99.90;;;;;;4901747;29;20110;-69
2023/08/24 03:30:54;;;;;;;8.52;2.78;;;17.20;99.90;;;;;;4899217;29;20072;-69
2023/08/24 03:33:19;;;;;;;6.45;2.92;;;17.10;99.90;;;;;;4919524;29;20028;-69
2023/08/24 03:35:45;;;;;;;3.90;2.40;;;17.00;99.90;;;;;;4899477;29;20444;-69
2023/08/24 03:38:11;;;;;;;7.65;2.60;;;17.00;99.90;;;;;;4914494;29;20039;-69
2023/08/24 03:40:36;;;;;;;5.13;2.63;;;17.00;99.90;;;;;;4909528;29;20523;-69
2023/08/24 03:43:03;;;;;;;9.10;3.33;;;17.00;99.90;;;;;;4911845;29;20086;-69
2023/08/24 03:45:28;;;;;;;6.45;2.70;;;17.00;99.90;;;;;;4903427;29;20391;-70
2023/08/24 03:47:54;;;;;;;4.80;2.50;;;17.00;99.90;;;;;;4907439;29;20107;-70
2023/08/24 03:50:22;;;;;;;6.80;2.72;;;17.00;99.90;;;;;;4896342;29;20035;-69
2023/08/24 03:52:49;;;;;;;5.45;2.72;;;17.00;99.90;;;;;;4913974;29;20520;-69
2023/08/24 03:55:15;;;;;;;4.22;2.65;;;17.00;99.90;;;;;;4913872;29;20040;-69
2023/08/24 03:57:40;;;;;;;4.03;2.53;;;17.00;99.90;;;;;;4904979;29;20649;-69
2023/08/24 04:00:10;;;;;;;7.80;2.63;;;17.10;99.90;;;;;;4899150;29;20055;-69
2023/08/24 04:02:37;;;;;;;6.28;2.50;;;17.10;99.90;;;;;;4882505;29;20033;-69
2023/08/24 04:05:04;;;;;;;3.85;2.55;;;17.10;99.90;;;;;;4905972;29;20590;-69
2023/08/24 04:07:29;;;;;;;4.88;2.50;;;17.10;99.90;;;;;;4902174;29;20032;-69
2023/08/24 04:09:55;;;;;;;5.45;2.50;;;17.10;99.90;;;;;;4897448;29;20091;-70
2023/08/24 04:12:20;;;;;;;4.55;2.45;;;17.20;99.90;;;;;;4904598;29;20389;-69
2023/08/24 04:14:46;;;;;;;5.35;2.25;;;17.20;99.90;;;;;;4908613;29;20032;-69
2023/08/24 04:17:11;;;;;;;5.82;2.20;;;17.20;99.90;;;;;;4904342;29;20039;-69
2023/08/24 04:19:40;;;;;;;4.43;2.30;;;17.20;99.90;;;;;;4900878;29;20044;-69
2023/08/24 04:22:06;;;;;;;4.82;2.50;;;17.30;99.90;;;;;;4899497;29;20067;-69
2023/08/24 04:24:31;;;;;;;4.95;2.42;;;17.30;99.90;;;;;;4900130;29;20055;-69
2023/08/24 04:26:57;;;;;;;6.78;3.00;;;17.30;99.90;;;;;;4903830;29;20124;-69
2023/08/24 04:29:23;;;;;;;5.15;2.20;;;17.40;99.90;;;;;;4902111;29;20518;-69
2023/08/24 04:31:48;;;;;;;5.55;2.65;;;17.40;99.90;;;;;;4906346;29;20040;-69
2023/08/24 04:34:14;;;;;;;8.13;2.60;;;17.30;99.90;;;;;;4902251;29;20040;-69
2023/08/24 04:36:39;;;;;;;3.55;2.35;;;17.40;99.90;;;;;;4917393;29;20032;-70
2023/08/24 04:39:05;;;;;;;7.78;3.30;;;17.40;99.90;;;;;;4912047;29;20044;-69
2023/08/24 04:41:31;;;;;;;5.68;2.90;;;17.40;99.90;;;;;;4898001;29;20103;-70
2023/08/24 04:43:56;;;;;;;6.13;2.78;;;17.40;99.90;;;;;;4904406;29;20095;-70
2023/08/24 04:46:22;;;;;;;5.05;2.60;;;17.40;99.90;;;;;;4906571;29;20171;-70
2023/08/24 04:48:48;;;;;;;4.65;3.00;;;17.30;99.90;;;;;;4903666;29;20044;-70
2023/08/24 04:51:13;;;;;;;6.55;3.47;;;17.30;99.90;;;;;;4904352;29;20130;-70
2023/08/24 04:53:39;;;;;;;5.03;3.30;;;17.30;99.90;;;;;;4902366;29;20032;-70
2023/08/24 04:56:04;;;;;;;5.28;2.70;;;17.30;99.90;;;;;;4917562;29;20062;-70
2023/08/24 04:58:32;;;;;;;4.95;2.92;;;17.20;99.90;;;;;;4920006;29;20040;-70
2023/08/24 05:00:58;;;;;;;6.53;2.92;;;17.20;99.90;;;;;;4910190;29;20535;-70
2023/08/24 05:03:24;;;;;;;4.40;2.67;;;17.20;99.90;;;;;;4910375;29;20500;-70
2023/08/24 05:05:49;;;;;;;4.97;2.70;;;17.20;99.90;;;;;;4909195;29;20047;-70
2023/08/24 05:08:15;;;;;;;7.07;2.80;;;17.20;99.90;;;;;;4903680;29;20454;-70
2023/08/24 05:10:41;;;;;;;5.90;2.92;;;17.10;99.90;;;;;;4903936;29;20040;-70
2023/08/24 05:13:06;;;;;;;3.42;2.65;;;17.10;99.90;;;;;;4904038;29;20080;-71
2023/08/24 05:15:32;;;;;;;5.15;3.10;;;17.10;99.90;;;;;;4909323;29;20459;-70
2023/08/24 05:17:59;;;;;;;6.32;3.55;;;17.10;99.90;;;;;;4903972;29;20039;-70
2023/08/24 05:20:26;;;;;;;4.93;3.03;;;17.10;99.90;;;;;;4903540;29;20035;-69
2023/08/24 05:22:51;;;;;;;6.55;2.95;;;17.10;99.90;;;;;;4901900;29;20035;-69
2023/08/24 05:25:17;;;;;;;4.13;3.03;;;17.20;99.90;;;;;;4920885;29;20387;-69
2023/08/24 05:27:43;;;;;;;6.32;3.05;;;17.20;99.90;;;;;;4917580;29;20054;-69
2023/08/24 05:30:09;;;;;;;8.25;3.45;;;17.30;99.90;;;;;;4900920;29;20476;-69
2023/08/24 05:32:38;;;;;;;6.05;3.45;;;17.30;99.90;;;;;;4905391;29;20621;-69
2023/08/24 05:35:05;;;;;;;7.60;3.72;;;17.30;99.90;;;;;;4913933;29;20484;-70
2023/08/24 05:37:31;;;;;;;5.43;3.25;;;17.30;99.90;;;;;;4915595;29;20032;-69
2023/08/24 05:39:56;;;;;;;8.45;3.55;;;17.30;99.90;;;;;;4906775;29;20511;-69
2023/08/24 05:42:22;;;;;;;7.03;3.67;;;17.30;99.90;;;;;;4899807;29;20071;-69
2023/08/24 05:44:47;;;;;;;11.23;4.13;;;17.30;99.90;;;;;;4901119;29;20890;-69
2023/08/24 05:47:13;;;;;;;5.88;3.65;;;17.30;99.90;;;;;;4899791;29;20315;-69
2023/08/24 05:49:39;;;;;;;10.60;3.92;;;17.30;99.90;;;;;;4896258;29;20036;-69
2023/08/24 05:52:04;;;;;;;6.93;3.47;;;17.30;99.90;;;;;;4898920;29;20063;-70
2023/08/24 05:54:30;;;;;;;6.53;3.30;;;17.40;99.90;;;;;;4900780;29;20556;-69
2023/08/24 05:57:00;;;;;;;7.82;3.30;;;17.40;99.90;;;;;;4901025;29;20473;-70
2023/08/24 05:59:26;;;;;;;6.35;3.10;;;17.40;99.90;;;;;;4904512;29;20036;-69
2023/08/24 06:01:51;;;;;;;5.25;3.60;;;17.40;99.90;;;;;;4903781;29;20444;-70
2023/08/24 06:04:17;;;;;;;8.88;3.40;;;17.50;99.90;;;;;;4900973;29;20060;-69
2023/08/24 06:06:43;;;;;;;5.60;3.05;;;17.50;99.90;;;;;;4896588;29;20559;-69
2023/08/24 06:09:09;;;;;;;10.77;7.63;;;17.50;99.90;;;;;;4900280;29;20063;-69
2023/08/24 06:11:35;;;;;;;21.27;11.55;;;17.50;99.90;;;;;;4913369;29;20226;-69
2023/08/24 06:14:01;;;;;;;6.03;3.50;;;17.50;99.90;;;;;;4899399;29;20215;-69
2023/08/24 06:16:28;;;;;;;5.45;3.88;;;17.50;99.90;;;;;;4899120;29;20024;-69
2023/08/24 06:18:54;;;;;;;9.48;3.50;;;17.60;99.90;;;;;;4906691;29;20027;-69
2023/08/24 06:21:19;;;;;;;5.43;3.08;;;17.50;99.90;;;;;;4901173;29;20035;-70
2023/08/24 06:23:47;;;;;;;5.90;3.40;;;17.50;99.90;;;;;;4914428;29;20067;-70
2023/08/24 06:26:13;;;;;;;8.90;3.13;;;17.60;99.90;;;;;;4894903;29;20063;-69
2023/08/24 06:28:38;;;;;;;9.02;6.38;;;17.60;99.90;;;;;;4894367;29;20118;-69
2023/08/24 06:31:04;;;;;;;7.32;3.97;;;17.60;99.90;;;;;;4897280;29;20267;-70
2023/08/24 06:33:34;;;;;;;6.55;3.58;;;17.70;99.90;;;;;;4895086;29;20058;-70
2023/08/24 06:35:59;;;;;;;5.13;3.58;;;17.70;99.90;;;;;;4912705;29;20127;-70
2023/08/24 06:38:26;;;;;;;6.30;3.55;;;17.80;99.90;;;;;;4906992;29;20032;-70
2023/08/24 06:40:51;;;;;;;8.05;4.80;;;17.80;99.90;;;;;;4904880;29;20051;-70
2023/08/24 06:43:17;;;;;;;8.25;5.03;;;17.80;99.90;;;;;;4907285;29;20028;-70
2023/08/24 06:45:44;;;;;;;21.88;12.57;;;17.80;99.90;;;;;;4897000;29;20139;-70
2023/08/24 06:48:10;;;;;;;5.55;3.63;;;17.80;99.90;;;;;;4897178;29;20032;-70
2023/08/24 06:50:36;;;;;;;6.20;3.13;;;17.90;99.90;;;;;;4894376;29;20039;-70
2023/08/24 06:53:03;;;;;;;7.28;4.57;;;17.90;99.90;;;;;;4892223;29;20024;-70
2023/08/24 06:55:29;;;;;;;8.15;3.30;;;17.90;99.90;;;;;;4899956;29;20135;-70
2023/08/24 06:57:55;;;;;;;5.60;3.88;;;17.90;99.90;;;;;;4885282;29;20024;-70
2023/08/24 07:00:20;;;;;;;4.97;3.65;;;17.90;99.90;;;;;;4889424;29;20401;-69
2023/08/24 07:02:50;;;;;;;5.85;3.83;;;18.00;99.90;;;;;;4903389;29;20498;-69
2023/08/24 07:05:18;;;;;;;17.50;10.85;;;18.00;99.90;;;;;;4888325;29;20033;-69
2023/08/24 07:07:45;;;;;;;9.75;6.47;;;18.00;99.90;;;;;;4913826;29;20040;-69
2023/08/24 07:10:11;;;;;;;5.43;4.05;;;18.00;99.90;;;;;;4899925;29;20028;-69
2023/08/24 07:12:40;;;;;;;6.70;4.53;;;18.10;99.90;;;;;;4897855;29;20334;-69
2023/08/24 07:15:07;;;;;;;7.43;4.32;;;18.10;99.90;;;;;;4920320;29;20091;-69
2023/08/24 07:17:32;;;;;;;6.82;4.20;;;18.10;99.90;;;;;;4899912;29;20043;-69
2023/08/24 07:19:58;;;;;;;7.43;4.50;;;18.10;99.90;;;;;;4899218;29;20044;-69
2023/08/24 07:22:26;;;;;;;6.18;3.80;;;18.30;99.90;;;;;;4896070;29;20442;-69
2023/08/24 07:24:52;;;;;;;7.03;3.72;;;18.40;99.90;;;;;;4897666;29;20040;-69
2023/08/24 07:27:18;;;;;;;7.78;3.92;;;18.40;99.90;;;;;;4898162;29;20043;-69
2023/08/24 07:29:44;;;;;;;9.55;4.07;;;18.40;99.90;;;;;;4909754;29;20142;-71
2023/08/24 07:32:10;;;;;;;7.65;3.92;;;18.40;99.90;;;;;;4903439;29;20036;-70
2023/08/24 07:34:36;;;;;;;8.25;3.72;;;18.60;99.90;;;;;;4900441;29;20067;-69
2023/08/24 07:37:01;;;;;;;6.95;3.90;;;18.60;99.90;;;;;;4896277;29;20459;-68
2023/08/24 07:39:27;;;;;;;6.47;4.22;;;18.70;99.90;;;;;;4908227;29;20588;-69
2023/08/24 07:41:52;;;;;;;6.50;3.30;;;18.80;99.90;;;;;;4902056;29;20110;-68
2023/08/24 07:44:18;;;;;;;6.38;3.28;;;19.00;99.90;;;;;;4908359;29;20068;-72
2023/08/24 07:46:44;;;;;;;9.23;3.45;;;19.10;99.90;;;;;;4900048;29;20452;-72
2023/08/24 07:49:10;;;;;;;4.10;3.40;;;19.30;99.90;;;;;;4907227;29;20095;-72
2023/08/24 07:51:36;;;;;;;5.40;3.60;;;19.50;99.90;;;;;;4903816;29;20532;-71
2023/08/24 07:54:04;;;;;;;6.05;3.30;;;19.70;99.90;;;;;;4903110;29;20493;-68
2023/08/24 07:56:30;;;;;;;5.80;3.22;;;19.90;99.90;;;;;;4905393;29;20055;-69
2023/08/24 07:58:55;;;;;;;6.22;3.63;;;20.10;99.90;;;;;;4900684;29;20150;-70
2023/08/24 08:01:21;;;;;;;5.72;3.53;;;20.20;99.90;;;;;;4908610;29;20036;-70
2023/08/24 08:03:46;;;;;;;7.85;3.80;;;20.30;99.90;;;;;;4905228;29;20058;-71
2023/08/24 08:06:13;;;;;;;5.78;3.40;;;20.40;99.90;;;;;;4902275;29;20106;-68
2023/08/24 08:08:39;;;;;;;6.20;3.60;;;20.60;99.90;;;;;;4920810;29;20031;-68
2023/08/24 08:11:04;;;;;;;4.65;3.28;;;20.70;99.90;;;;;;4915531;29;20032;-68
2023/08/24 08:13:30;;;;;;;7.78;3.65;;;20.70;99.90;;;;;;4911351;29;20583;-68
2023/08/24 08:16:06;;;;;;;7.57;3.80;;;20.80;99.90;;;;;;4904275;29;20806;-68
2023/08/24 08:18:33;;;;;;;7.50;4.35;;;20.90;99.90;;;;;;4903899;29;20159;-68
2023/08/24 08:20:59;;;;;;;5.15;4.38;;;21.00;99.90;;;;;;4900859;29;20044;-68
2023/08/24 08:23:25;;;;;;;8.75;4.38;;;21.00;99.90;;;;;;4893320;29;20032;-72
2023/08/24 08:25:50;;;;;;;6.25;4.15;;;21.30;99.90;;;;;;4913576;29;20122;-71
2023/08/24 08:28:17;;;;;;;5.43;3.65;;;21.60;99.90;;;;;;4903616;29;20475;-67
2023/08/24 08:30:44;;;;;;;7.00;3.60;;;21.70;99.90;;;;;;4898953;29;20368;-67
2023/08/24 08:33:09;;;;;;;10.38;4.80;;;21.70;99.90;;;;;;4888340;29;20518;-67
2023/08/24 08:35:35;;;;;;;8.43;4.25;;;21.60;99.90;;;;;;4900519;29;20024;-67
2023/08/24 08:38:01;;;;;;;8.68;3.97;;;21.60;99.90;;;;;;4901058;29;20092;-69
2023/08/24 08:40:30;;;;;;;10.98;4.38;;;21.80;99.90;;;;;;4902222;29;20055;-70
2023/08/24 08:42:59;;;;;;;7.25;3.95;;;22.10;99.90;;;;;;4915351;29;20032;-69
2023/08/24 08:45:28;;;;;;;7.90;4.10;;;22.50;99.90;;;;;;4899241;29;20060;-68
2023/08/24 08:47:57;;;;;;;8.35;4.25;;;22.80;99.90;;;;;;4901863;29;20433;-69
2023/08/24 08:50:24;;;;;;;8.10;4.68;;;23.00;99.90;;;;;;4903811;29;20245;-69
2023/08/24 08:52:50;;;;;;;9.50;4.53;;;23.20;99.90;;;;;;4908996;29;20028;-69
2023/08/24 08:55:16;;;;;;;7.78;4.60;;;23.20;99.90;;;;;;4905162;29;20087;-69
2023/08/24 08:57:42;;;;;;;9.32;4.55;;;23.40;99.90;;;;;;4897780;29;20445;-69
2023/08/24 09:00:12;;;;;;;8.07;4.60;;;23.50;99.90;;;;;;4899229;29;20043;-69
2023/08/24 09:02:39;;;;;;;9.20;4.55;;;23.60;99.90;;;;;;4893208;29;20548;-69
2023/08/24 09:05:05;;;;;;;10.43;5.35;;;23.60;99.90;;;;;;4894800;29;20483;-69
2023/08/24 09:07:32;;;;;;;8.68;5.00;;;23.40;99.90;;;;;;4891678;29;20025;-70
2023/08/24 09:09:57;;;;;;;10.05;4.95;;;23.10;99.90;;;;;;4901698;29;20122;-69
2023/08/24 09:12:23;;;;;;;9.35;5.28;;;22.70;99.90;;;;;;4902739;29;20226;-69
2023/08/24 09:14:49;;;;;;;10.30;5.15;;;22.40;99.90;;;;;;4898431;29;20040;-69
2023/08/24 09:17:23;;;;;;;12.00;5.22;;;22.10;99.90;;;;;;4898175;29;20032;-69
2023/08/24 09:19:57;;;;;;;8.88;4.57;;;22.00;99.90;;;;;;4899153;29;20124;-69
2023/08/24 09:22:22;;;;;;;7.40;4.60;;;21.90;99.90;;;;;;4899993;29;20027;-69
2023/08/24 09:24:51;;;;;;;7.70;4.68;;;21.80;99.90;;;;;;4898508;29;20036;-69
2023/08/24 09:27:19;;;;;;;8.57;4.95;;;21.90;99.90;;;;;;4896092;29;20032;-69
2023/08/24 09:29:52;;;;;;;8.65;4.97;;;22.00;99.90;;;;;;4896958;29;20066;-69
2023/08/24 09:32:27;;;;;;;11.00;5.97;;;22.10;99.90;;;;;;4899588;29;20196;-69
2023/08/24 09:34:52;;;;;;;10.00;5.53;;;22.70;99.90;;;;;;4902072;29;20032;-69
2023/08/24 09:37:19;;;;;;;11.27;5.22;;;23.50;99.90;;;;;;4916532;29;20087;-69
2023/08/24 09:39:45;;;;;;;10.85;5.38;;;24.60;99.90;;;;;;4889387;29;20036;-69
2023/08/24 09:42:11;;;;;;;10.60;5.28;;;25.60;99.90;;;;;;4901996;29;20028;-69
2023/08/24 09:44:36;;;;;;;9.77;5.10;;;26.30;99.90;;;;;;4902739;29;20036;-69
2023/08/24 09:47:02;;;;;;;11.13;5.70;;;27.30;99.90;;;;;;4903252;29;20099;-69
2023/08/24 09:49:28;;;;;;;9.90;6.00;;;28.40;99.90;;;;;;4899730;29;20035;-69
2023/08/24 09:51:57;;;;;;;10.50;6.57;;;29.40;99.90;;;;;;4900551;29;20712;-69
2023/08/24 09:54:27;;;;;;;11.75;6.95;;;29.40;99.90;;;;;;4900771;29;20043;-69
2023/08/24 09:56:56;;;;;;;9.68;6.38;;;29.00;99.90;;;;;;4895678;29;20084;-69
2023/08/24 09:59:24;;;;;;;9.60;6.22;;;28.70;99.90;;;;;;4897803;29;20051;-69
2023/08/24 10:01:51;;;;;;;9.32;5.90;;;28.70;99.90;;;;;;4886460;29;20043;-70
2023/08/24 10:04:37;;;;;;;10.45;5.82;;;28.90;99.90;;;;;;4901231;29;20070;-70
2023/08/24 10:07:07;;;;;;;8.15;5.57;;;28.80;99.90;;;;;;4893812;29;20512;-70
2023/08/24 10:10:03;;;;;;;10.00;6.43;;;28.60;99.90;;;;;;4905640;29;20127;-69
2023/08/24 10:12:31;;;;;;;9.18;5.85;;;28.70;99.90;;;;;;4893463;29;20828;-69
2023/08/24 10:15:03;;;;;;;8.70;5.93;;;28.40;99.90;;;;;;4894873;29;20570;-69
2023/08/24 10:17:33;;;;;;;8.57;5.53;;;28.10;99.90;;;;;;4898941;29;20318;-69
2023/08/24 10:20:08;;;;;;;9.75;5.35;;;28.80;99.90;;;;;;4898551;29;20156;-70
2023/08/24 10:22:35;;;;;;;7.65;5.18;;;30.40;99.90;;;;;;4899421;29;20032;-69
2023/08/24 10:25:02;;;;;;;9.77;5.35;;;31.40;99.90;;;;;;4898776;29;20066;-69
2023/08/24 10:27:29;;;;;;;10.35;5.55;;;31.10;99.90;;;;;;4900108;29;20028;-69
2023/08/24 10:29:55;;;;;;;9.48;4.95;;;30.50;99.90;;;;;;4899523;29;20032;-69
2023/08/24 10:32:22;;;;;;;12.70;5.53;;;29.90;99.90;;;;;;4900580;29;20035;-69
2023/08/24 10:34:48;;;;;;;8.40;4.68;;;29.30;99.90;;;;;;4903078;29;20155;-69
2023/08/24 10:37:14;;;;;;;8.20;4.50;;;29.30;99.90;;;;;;4900593;29;20409;-69
2023/08/24 10:39:46;;;;;;;8.32;4.38;;;30.60;99.90;;;;;;4899292;29;20522;-70
2023/08/24 10:42:13;;;;;;;8.18;4.20;;;31.30;99.90;;;;;;4892868;29;20043;-69
2023/08/24 10:44:43;;;;;;;6.57;4.50;;;31.60;99.90;;;;;;4914465;29;20039;-69
2023/08/24 10:47:25;;;;;;;8.60;4.25;;;31.30;99.90;;;;;;4900933;29;20071;-70
2023/08/24 10:49:54;;;;;;;10.48;5.15;;;31.20;99.90;;;;;;4893534;29;20135;-70
2023/08/24 10:52:24;;;;;;;7.93;3.90;;;31.00;99.90;;;;;;4892156;29;20043;-69
2023/08/24 10:54:52;;;;;;;7.22;4.15;;;30.30;99.90;;;;;;4898801;29;20039;-69
2023/08/24 10:57:19;;;;;;;6.68;3.60;;;29.60;99.90;;;;;;4900460;29;20122;-69
2023/08/24 10:59:45;;;;;;;9.38;3.90;;;28.80;99.90;;;;;;4894334;29;20044;-69
2023/08/24 11:02:20;;;;;;;5.38;4.05;;;28.30;99.90;;;;;;3868751;29;10000669;-69
2023/08/24 11:05:14;;;;;;;8.40;3.83;;;28.00;99.90;;;;;;4895902;29;20561;-69
2023/08/24 11:07:59;;;;;;;9.20;3.95;;;27.70;99.90;;;;;;4895770;29;20568;-69
2023/08/24 11:10:48;;;;;;;7.47;3.95;;;27.50;99.90;;;;;;4900742;29;20032;-69
2023/08/24 11:13:16;;;;;;;13.20;4.50;;;27.20;99.90;;;;;;4891013;29;20127;-69
2023/08/24 11:15:54;;;;;;;8.88;3.78;;;27.00;99.90;;;;;;4891568;29;20043;-69
2023/08/24 11:18:28;;;;;;;9.50;4.10;;;26.50;99.90;;;;;;4891529;29;20032;-69
2023/08/24 11:20:58;;;;;;;7.78;4.28;;;26.00;99.90;;;;;;4908561;29;20119;-69
2023/08/24 11:23:24;;;;;;;11.73;4.97;;;25.80;99.90;;;;;;4910828;29;20031;-69
2023/08/24 11:25:56;;;;;;;9.40;4.30;;;25.60;99.90;;;;;;4909434;29;20039;-69
2023/08/24 11:28:22;;;;;;;8.55;4.60;;;25.50;99.90;;;;;;4892152;29;20032;-69
2023/08/24 11:30:48;;;;;;;9.18;5.25;;;25.30;99.90;;;;;;4886055;29;20608;-69
2023/08/24 11:33:14;;;;;;;11.13;4.65;;;25.00;99.90;;;;;;4887126;29;20066;-69
2023/08/24 11:35:45;;;;;;;8.38;4.97;;;25.00;99.90;;;;;;4894802;29;20028;-69
2023/08/24 11:38:11;;;;;;;11.50;5.18;;;25.10;99.90;;;;;;4889485;29;20325;-69
2023/08/24 11:40:37;;;;;;;10.43;5.45;;;25.20;99.90;;;;;;4895449;29;20044;-69
2023/08/24 11:43:05;;;;;;;6.93;4.90;;;25.20;99.90;;;;;;4897226;29;20032;-69
2023/08/24 11:45:36;;;;;;;9.30;5.22;;;25.50;99.90;;;;;;4554829;29;9999762;-69
2023/08/24 11:48:04;;;;;;;7.47;5.05;;;25.90;99.90;;;;;;4892402;29;20048;-69
2023/08/24 11:50:30;;;;;;;7.10;5.40;;;26.10;99.90;;;;;;4889328;29;20028;-69
2023/08/24 11:52:56;;;;;;;9.95;5.75;;;26.40;99.90;;;;;;4895271;29;20032;-69
2023/08/24 11:55:24;;;;;;;7.88;5.43;;;26.80;99.90;;;;;;4898036;29;20508;-69
2023/08/24 11:57:51;;;;;;;7.88;5.35;;;27.40;99.90;;;;;;4919914;29;20376;-69
2023/08/24 12:00:19;;;;;;;6.97;5.50;;;27.70;99.90;;;;;;4897277;29;20208;-69
2023/08/24 12:02:45;;;;;;;8.90;5.13;;;27.80;99.90;;;;;;4896045;29;20028;-69
2023/08/24 12:05:31;;;;;;;9.10;5.82;;;27.80;99.90;;;;;;4894964;29;20150;-69
2023/08/24 12:07:57;;;;;;;9.27;5.25;;;27.50;99.90;;;;;;4892601;29;20055;-70
2023/08/24 12:10:22;;;;;;;8.27;5.18;;;27.40;99.90;;;;;;4896502;29;20360;-69
2023/08/24 12:12:48;;;;;;;8.65;6.50;;;27.20;99.90;;;;;;4893682;29;20038;-67
2023/08/24 12:15:21;;;;;;;8.27;6.57;;;27.00;99.90;;;;;;4899234;29;20052;-68
2023/08/24 12:17:47;;;;;;;8.98;5.80;;;26.70;99.90;;;;;;4898062;29;20119;-68
2023/08/24 12:20:21;;;;;;;6.70;5.47;;;26.40;99.90;;;;;;4909283;29;20040;-67
2023/08/24 12:22:54;;;;;;;10.30;6.28;;;26.20;99.90;;;;;;4898486;29;20037;-67
2023/08/24 12:25:24;;;;;;;8.27;6.50;;;25.90;99.90;;;;;;4897821;29;20119;-68
2023/08/24 12:27:51;;;;;;;11.13;7.07;;;25.70;99.90;;;;;;4895652;29;20028;-68
2023/08/24 12:30:18;;;;;;;11.35;7.78;;;25.60;99.90;;;;;;4898686;29;20452;-67
2023/08/24 12:32:46;;;;;;;13.70;8.07;;;25.50;99.90;;;;;;4901380;29;20028;-68
2023/08/24 12:35:14;;;;;;;10.48;7.63;;;25.40;99.90;;;;;;4908173;29;20488;-68
2023/08/24 12:37:39;;;;;;;11.20;7.22;;;25.40;99.90;;;;;;4902047;29;20088;-67
2023/08/24 12:40:06;;;;;;;9.77;7.65;;;25.50;99.90;;;;;;4899528;29;20048;-67
2023/08/24 12:42:32;;;;;;;11.55;7.95;;;25.70;99.90;;;;;;4903947;29;20829;-67
2023/08/24 12:44:58;;;;;;;13.73;8.02;;;26.10;99.90;;;;;;4908519;29;20115;-68
2023/08/24 12:47:23;;;;;;;11.68;7.15;;;26.90;99.90;;;;;;4902966;29;20040;-70